Bedford, IN

10:27 AM EDT on August 17, 2017 (GMT -0400)
Edgewood Addition | | Change Station

Elev 666 ft 38.86 °N, 86.50 °W | Updated 1 second ago

Mostly Cloudy
Mostly Cloudy
82.3 °F
Feels Like 90 °F
N
1.2
Wind Variable Wind from SW
Gusts 6.0 mph

Today
High -- | Low -- °F
--% Chance of Precip.
Yesterday
High -- | Low -- °F
Precip. -- in
Pressure 29.87 in
Visibility 10.0 miles
Clouds Mostly Cloudy 1600 ft
Overcast 2200 ft
Heat Index 90 °F
Dew Point 75 °F
Humidity 80%
Rainfall 0.00 in
Snow Depth Not available.
7:01 AM 8:37 PM
Waning Crescent, 22% visible
METAR KBMG 171353Z 20012G18KT 10SM BKN016 OVC022 27/23 A2990 RMK AO2 SLP115 T02670228
Pressure 29.87 in
Visibility 10.0 miles
Clouds Mostly Cloudy 1600 ft
Overcast 2200 ft
Heat Index 90 °F
Dew Point 75 °F
Humidity 80%
Rainfall 0.00 in
Snow Depth Not available.
7:01 AM 8:37 PM
Waning Crescent, 22% visible
METAR KBMG 171353Z 20012G18KT 10SM BKN016 OVC022 27/23 A2990 RMK AO2 SLP115 T02670228

Get Severe Weather Alerts

Thanks for signing up!

Be on the lookout for a verification email in your inbox.

You'll start receiving the daily forecast at 6 AM.

×

10-Day Weather Forecast

Almanac

Astronomy

Aug. 17, 2017 Rise Set
Actual Time
Civil Twilight
Nautical Twilight
Astronomical Twilight
Moon
Length of Visible Light
Length of Day
Tomorrow will be .
, % of the Moon is Illuminated

Today's Extremes

State Highs State Lows

Community

WunderPhotos

Category 6

Welcome to Category 6. This is the collective home for Weather Underground's featured writeups by Dr. Jeff Masters (right), Bob Henson (left), Chris Burt, and other regular contributors.

Nearby

Air Quality

  Air Quality AQ Index Pollutant
Not available.

Snow Depth

Station Depth Elevation

Earthquake Activity

City Distance Mag. Time & Date
Minimum magnitude displayed is 2.5.

Coastal Water Temperatures

Place Temperature

Stations

Nearby Weather Stations

Station Location Temp. Windchill Dew Point Humidity Wind Precip. Elev Updated Type
                   

Watches & Warnings

There are currently no watches in effect.